Time;durP1;ratioP1;P1;durP2;ratioP2;P2;SDS_P1;SDS_P2;PMS_P1;PMS_P2;Temp;Humidity;BMP_temperature;BMP_pressure;BME280_temperature;BME280_humidity;BME280_pressure;Samples;Min_cycle;Max_cycle;Signal;HPM_P1;HPM_P2
2023/04/10 00:02:07;;;;;;;19.33;10.00;;;4.50;68.40;;;;;;5021006;28;20493;-57
2023/04/10 00:04:33;;;;;;;13.90;8.20;;;4.50;68.80;;;;;;5027410;28;20172;-58
2023/04/10 00:06:59;;;;;;;16.70;9.63;;;4.40;68.70;;;;;;5024839;28;20188;-58
2023/04/10 00:09:25;;;;;;;14.13;8.77;;;4.40;68.70;;;;;;5024954;28;20172;-58
2023/04/10 00:11:50;;;;;;;15.23;8.90;;;4.30;68.90;;;;;;5004395;28;20634;-58
2023/04/10 00:14:21;;;;;;;14.37;9.20;;;4.30;69.20;;;;;;5023309;28;20534;-57
2023/04/10 00:16:48;;;;;;;14.93;9.43;;;4.30;69.60;;;;;;5023361;28;20183;-58
2023/04/10 00:19:13;;;;;;;15.23;9.43;;;4.20;70.10;;;;;;5028192;28;20580;-59
2023/04/10 00:21:39;;;;;;;13.60;9.67;;;4.10;70.40;;;;;;5026499;28;20984;-58
2023/04/10 00:24:04;;;;;;;16.53;9.93;;;4.10;70.60;;;;;;5028407;28;20187;-58
2023/04/10 00:26:30;;;;;;;12.90;9.00;;;4.10;70.90;;;;;;5024873;28;20544;-57
2023/04/10 00:28:56;;;;;;;17.17;10.30;;;4.10;71.10;;;;;;5022524;28;20176;-58
2023/04/10 00:31:21;;;;;;;15.13;10.23;;;4.00;70.90;;;;;;5024867;28;20389;-58
2023/04/10 00:33:47;;;;;;;15.27;9.03;;;4.00;70.80;;;;;;5020037;28;20180;-58
2023/04/10 00:36:13;;;;;;;13.87;9.03;;;3.90;70.80;;;;;;5011235;28;20195;-58
2023/04/10 00:38:38;;;;;;;11.97;8.33;;;3.80;71.90;;;;;;5027490;28;20176;-58
2023/04/10 00:41:05;;;;;;;14.40;9.23;;;3.70;72.70;;;;;;5025639;28;20231;-58
2023/04/10 00:43:30;;;;;;;13.90;8.53;;;3.70;74.40;;;;;;5023714;28;20541;-58
2023/04/10 00:45:56;;;;;;;14.33;8.40;;;3.60;75.70;;;;;;5023544;28;20430;-58
2023/04/10 00:48:22;;;;;;;15.70;8.93;;;3.60;76.80;;;;;;5008759;28;20222;-58
2023/04/10 00:50:48;;;;;;;13.23;7.80;;;3.60;77.50;;;;;;5021773;28;20695;-57
2023/04/10 00:53:13;;;;;;;18.80;8.23;;;3.70;77.40;;;;;;5021900;28;20700;-57
2023/04/10 00:55:40;;;;;;;12.60;8.30;;;3.70;77.80;;;;;;5022816;28;20203;-58
2023/04/10 00:58:05;;;;;;;14.70;8.50;;;3.70;77.70;;;;;;5026730;28;20172;-58
2023/04/10 01:00:31;;;;;;;17.73;8.97;;;3.70;77.80;;;;;;5025217;28;20437;-58
2023/04/10 01:02:59;;;;;;;11.83;7.80;;;3.70;76.80;;;;;;5023290;28;20206;-57
2023/04/10 01:05:33;;;;;;;12.30;8.07;;;3.80;76.30;;;;;;5000132;28;20738;-57
2023/04/10 01:08:16;;;;;;;13.00;8.40;;;3.80;76.30;;;;;;5020830;28;20465;-57
2023/04/10 01:11:00;;;;;;;13.43;8.83;;;3.80;75.60;;;;;;5019145;28;20540;-58
2023/04/10 01:13:32;;;;;;;14.70;8.80;;;3.70;75.50;;;;;;5021002;28;20431;-58
2023/04/10 01:16:04;;;;;;;13.90;8.80;;;3.70;76.40;;;;;;5025212;28;20557;-57
2023/04/10 01:18:39;;;;;;;13.07;8.80;;;3.70;76.00;;;;;;5019313;28;20427;-58
2023/04/10 01:21:08;;;;;;;12.43;8.20;;;3.70;76.10;;;;;;5020376;28;20573;-58
2023/04/10 01:23:51;;;;;;;13.77;8.73;;;3.70;76.10;;;;;;5025014;28;20422;-57
2023/04/10 01:26:36;;;;;;;12.87;8.40;;;3.60;75.20;;;;;;5022976;28;20438;-58
2023/04/10 01:29:07;;;;;;;12.70;7.97;;;3.50;76.00;;;;;;5024292;28;20499;-58
2023/04/10 01:31:40;;;;;;;12.50;7.57;;;3.50;76.60;;;;;;5024251;28;20536;-58
2023/04/10 01:34:20;;;;;;;14.30;8.80;;;3.40;76.80;;;;;;5030015;28;21131;-57
2023/04/10 01:36:55;;;;;;;14.13;8.50;;;3.40;77.30;;;;;;5023032;28;20487;-57
2023/04/10 01:39:22;;;;;;;13.37;8.57;;;3.30;77.50;;;;;;5026362;28;20484;-58
2023/04/10 01:41:51;;;;;;;16.97;10.13;;;3.30;78.00;;;;;;5017162;28;20815;-58
2023/04/10 01:44:20;;;;;;;19.30;10.33;;;3.20;79.00;;;;;;5027274;28;20453;-59
2023/04/10 01:46:48;;;;;;;14.60;8.20;;;3.20;79.60;;;;;;5020480;28;20477;-58
2023/04/10 01:49:16;;;;;;;13.27;8.87;;;3.10;80.40;;;;;;5031353;28;20410;-58
2023/04/10 01:51:42;;;;;;;16.90;9.50;;;3.10;80.70;;;;;;5023899;28;20469;-58
2023/04/10 01:54:09;;;;;;;13.70;7.83;;;3.10;81.70;;;;;;5024199;28;20430;-57
2023/04/10 01:56:35;;;;;;;13.97;8.30;;;3.10;82.40;;;;;;5028318;28;20992;-57
2023/04/10 01:59:02;;;;;;;13.53;8.10;;;3.00;82.90;;;;;;5028879;28;20430;-58
2023/04/10 02:01:28;;;;;;;14.70;8.60;;;3.00;83.40;;;;;;5029085;28;20899;-57
2023/04/10 02:03:54;;;;;;;16.97;9.07;;;3.00;83.50;;;;;;5028353;28;21003;-58
2023/04/10 02:06:26;;;;;;;12.93;8.00;;;3.00;84.40;;;;;;5020789;28;20522;-58
2023/04/10 02:09:37;;;;;;;11.87;8.10;;;3.00;84.00;;;;;;5029959;28;20790;-58
2023/04/10 02:12:11;;;;;;;13.60;8.47;;;3.00;83.40;;;;;;5011029;28;20472;-58
2023/04/10 02:14:41;;;;;;;14.80;7.43;;;2.90;83.40;;;;;;5023408;28;20909;-58
2023/04/10 02:17:10;;;;;;;12.13;7.70;;;2.90;83.50;;;;;;5030059;28;20442;-57
2023/04/10 02:19:37;;;;;;;13.30;8.37;;;2.90;84.90;;;;;;5025264;28;20989;-58
2023/04/10 02:22:04;;;;;;;12.63;8.00;;;2.90;84.30;;;;;;5007743;28;20478;-58
2023/04/10 02:24:32;;;;;;;16.10;8.60;;;2.90;84.20;;;;;;5021263;28;20431;-58
2023/04/10 02:26:57;;;;;;;14.10;8.73;;;2.80;84.00;;;;;;5021444;28;20979;-58
2023/04/10 02:29:23;;;;;;;12.93;7.90;;;2.80;84.00;;;;;;5027324;28;20438;-58
2023/04/10 02:31:49;;;;;;;14.10;7.50;;;2.70;84.10;;;;;;5025716;28;20200;-60
2023/04/10 02:34:15;;;;;;;14.23;8.17;;;2.70;83.80;;;;;;5022771;28;20179;-58
2023/04/10 02:36:40;;;;;;;13.03;7.77;;;2.70;84.10;;;;;;5009665;28;20497;-58
2023/04/10 02:39:09;;;;;;;11.80;7.60;;;2.60;84.50;;;;;;5025618;28;20223;-58
2023/04/10 02:41:35;;;;;;;13.47;8.00;;;2.60;85.40;;;;;;5023059;28;20213;-58
2023/04/10 02:44:01;;;;;;;13.30;7.77;;;2.60;87.30;;;;;;5027184;28;21215;-56
2023/04/10 02:46:26;;;;;;;13.43;7.83;;;2.60;87.00;;;;;;5024847;28;20180;-57
2023/04/10 02:48:52;;;;;;;12.63;7.73;;;2.60;86.90;;;;;;5018584;28;20560;-57
2023/04/10 02:51:18;;;;;;;14.30;8.27;;;2.60;87.10;;;;;;5025690;28;20203;-58
2023/04/10 02:53:43;;;;;;;14.33;9.03;;;2.60;87.70;;;;;;5026155;28;21198;-57
2023/04/10 02:56:10;;;;;;;10.53;7.27;;;2.60;87.70;;;;;;5024969;28;20214;-58
2023/04/10 02:58:37;;;;;;;10.13;6.40;;;2.60;87.50;;;;;;5026251;28;20184;-59
2023/04/10 03:01:06;;;;;;;13.60;7.77;;;2.60;87.50;;;;;;5022166;28;21151;-58
2023/04/10 03:03:31;;;;;;;10.17;6.70;;;2.60;87.50;;;;;;5027666;28;20504;-58
2023/04/10 03:05:57;;;;;;;13.00;8.10;;;2.50;87.50;;;;;;5024582;28;20853;-59
2023/04/10 03:08:22;;;;;;;13.30;8.27;;;2.50;88.10;;;;;;5030022;28;20184;-57
2023/04/10 03:10:48;;;;;;;12.90;7.67;;;2.50;88.90;;;;;;5026855;28;20670;-57
2023/04/10 03:13:14;;;;;;;15.00;8.77;;;2.40;89.50;;;;;;5027424;28;20876;-58
2023/04/10 03:15:40;;;;;;;13.57;7.93;;;2.40;90.00;;;;;;5021830;28;20207;-57
2023/04/10 03:18:06;;;;;;;14.67;8.40;;;2.40;89.30;;;;;;5019894;28;20500;-58
2023/04/10 03:20:32;;;;;;;12.10;8.00;;;2.30;89.30;;;;;;5020887;28;20184;-57
2023/04/10 03:22:59;;;;;;;12.20;8.40;;;2.40;90.00;;;;;;5018373;28;20202;-58
2023/04/10 03:25:25;;;;;;;14.27;7.30;;;2.30;90.00;;;;;;5018895;28;21022;-59
2023/04/10 03:27:50;;;;;;;12.70;7.87;;;2.30;90.00;;;;;;5027898;28;20462;-58
2023/04/10 03:30:16;;;;;;;12.37;7.33;;;2.30;89.10;;;;;;5024238;28;20179;-57
2023/04/10 03:32:42;;;;;;;12.80;8.20;;;2.20;88.60;;;;;;5023881;28;20211;-58
2023/04/10 03:35:09;;;;;;;11.33;7.40;;;2.20;89.60;;;;;;5020932;28;20726;-58
2023/04/10 03:37:34;;;;;;;12.03;7.70;;;2.10;90.00;;;;;;5026398;28;20430;-57
2023/04/10 03:40:00;;;;;;;14.90;8.00;;;2.10;90.00;;;;;;5022370;28;20503;-57
2023/04/10 03:42:26;;;;;;;10.37;6.97;;;2.00;90.30;;;;;;5025397;28;20212;-58
2023/04/10 03:44:51;;;;;;;11.17;7.43;;;2.00;90.30;;;;;;5022036;28;20312;-58
2023/04/10 03:47:17;;;;;;;12.13;7.83;;;2.00;90.50;;;;;;5024970;28;20183;-58
2023/04/10 03:49:42;;;;;;;11.67;7.20;;;2.00;91.00;;;;;;5013122;28;20184;-56
2023/04/10 03:52:08;;;;;;;10.70;7.47;;;1.90;91.20;;;;;;5019763;28;20206;-56
2023/04/10 03:54:34;;;;;;;14.07;7.47;;;1.90;91.90;;;;;;5025048;28;20230;-57
2023/04/10 03:57:00;;;;;;;13.57;7.37;;;1.90;91.90;;;;;;5027655;28;20364;-57
2023/04/10 03:59:26;;;;;;;11.37;6.60;;;1.90;92.40;;;;;;5023581;28;20233;-58
2023/04/10 04:01:52;;;;;;;11.97;7.27;;;1.90;93.00;;;;;;5023981;28;20469;-57
2023/04/10 04:04:18;;;;;;;13.97;6.70;;;1.80;92.40;;;;;;5021467;28;20603;-58
2023/04/10 04:06:44;;;;;;;12.77;7.60;;;1.80;92.20;;;;;;5017461;28;20508;-58
2023/04/10 04:09:10;;;;;;;10.60;6.80;;;1.80;92.40;;;;;;5024414;28;20443;-58
2023/04/10 04:11:37;;;;;;;10.30;7.57;;;1.80;93.10;;;;;;5008006;28;20679;-58
2023/04/10 04:14:02;;;;;;;13.50;7.60;;;1.80;93.20;;;;;;5022016;28;20448;-59
2023/04/10 04:16:28;;;;;;;12.50;7.30;;;1.80;93.30;;;;;;5019569;28;20465;-58
2023/04/10 04:18:54;;;;;;;12.37;7.50;;;1.80;93.20;;;;;;5023682;28;20180;-57
2023/04/10 04:21:19;;;;;;;13.80;7.20;;;1.70;93.30;;;;;;5014612;28;20331;-57
2023/04/10 04:23:45;;;;;;;10.67;7.37;;;1.70;93.10;;;;;;5011556;28;20180;-59
2023/04/10 04:26:10;;;;;;;14.13;8.00;;;1.70;92.90;;;;;;5016007;28;20189;-58
2023/04/10 04:28:36;;;;;;;15.97;7.30;;;1.70;92.70;;;;;;5026266;28;20172;-58
2023/04/10 04:31:01;;;;;;;12.53;7.20;;;1.70;93.70;;;;;;5024726;28;20270;-59
2023/04/10 04:33:27;;;;;;;10.30;6.60;;;1.70;94.20;;;;;;5025694;28;20242;-59
2023/04/10 04:35:53;;;;;;;11.80;7.27;;;1.70;94.40;;;;;;5019006;28;20195;-59
2023/04/10 04:38:19;;;;;;;13.10;7.27;;;1.70;94.90;;;;;;5021537;28;20266;-58
2023/04/10 04:40:44;;;;;;;11.43;7.33;;;1.70;94.80;;;;;;5019653;28;20222;-58
2023/04/10 04:43:10;;;;;;;12.93;7.50;;;1.70;94.40;;;;;;5024894;28;20466;-59
2023/04/10 04:45:36;;;;;;;15.33;6.80;;;1.70;94.30;;;;;;5023077;28;20435;-57
2023/04/10 04:48:01;;;;;;;13.07;7.50;;;1.70;93.90;;;;;;5019015;28;20219;-59
2023/04/10 04:50:27;;;;;;;14.30;7.40;;;1.70;93.90;;;;;;5020363;28;20207;-58
2023/04/10 04:52:53;;;;;;;15.93;8.30;;;1.70;94.30;;;;;;5026968;28;20199;-59
2023/04/10 04:55:18;;;;;;;11.97;7.77;;;1.70;94.70;;;;;;5025211;28;20291;-59
2023/04/10 04:57:44;;;;;;;13.20;7.40;;;1.70;94.50;;;;;;5022293;28;20222;-58
2023/04/10 05:00:10;;;;;;;11.67;7.67;;;1.70;94.80;;;;;;5023474;28;20619;-59
2023/04/10 05:02:35;;;;;;;14.70;8.00;;;1.70;95.50;;;;;;5023250;28;20199;-59
2023/04/10 05:05:01;;;;;;;12.10;7.27;;;1.70;95.00;;;;;;5021868;28;21024;-59
2023/04/10 05:07:26;;;;;;;15.00;7.77;;;1.70;94.00;;;;;;5029600;28;20191;-61
2023/04/10 05:09:52;;;;;;;12.00;7.53;;;1.60;93.60;;;;;;5026163;28;20206;-59
2023/04/10 05:12:18;;;;;;;12.97;8.23;;;1.70;93.90;;;;;;5020484;28;20207;-57
2023/04/10 05:14:44;;;;;;;12.00;7.00;;;1.60;93.40;;;;;;5023668;28;20219;-59
2023/04/10 05:17:10;;;;;;;12.57;8.10;;;1.60;93.40;;;;;;5024938;28;20176;-59
2023/04/10 05:19:36;;;;;;;13.00;7.33;;;1.60;93.60;;;;;;5026297;28;20437;-58
2023/04/10 05:22:01;;;;;;;13.27;8.47;;;1.60;94.30;;;;;;5024621;28;20827;-59
2023/04/10 05:24:27;;;;;;;13.70;8.37;;;1.60;94.80;;;;;;5013302;28;20206;-59
2023/04/10 05:26:52;;;;;;;13.63;8.50;;;1.70;95.30;;;;;;5026893;28;20187;-58
2023/04/10 05:29:18;;;;;;;13.33;7.97;;;1.70;95.40;;;;;;5027595;28;20254;-58
2023/04/10 05:31:44;;;;;;;16.07;8.50;;;1.70;96.30;;;;;;5024112;28;20195;-59
2023/04/10 05:34:10;;;;;;;14.57;8.47;;;1.70;96.00;;;;;;5026712;28;20192;-58
2023/04/10 05:36:36;;;;;;;12.80;8.20;;;1.80;95.90;;;;;;5023715;28;20503;-60
2023/04/10 05:39:01;;;;;;;15.67;8.80;;;1.80;95.40;;;;;;5036101;28;20450;-59
2023/04/10 05:41:27;;;;;;;13.30;8.30;;;1.90;94.40;;;;;;5008799;28;20198;-59
2023/04/10 05:43:53;;;;;;;14.27;7.63;;;1.90;93.40;;;;;;5021626;28;20722;-59
2023/04/10 05:46:18;;;;;;;11.00;7.47;;;2.00;92.40;;;;;;5023563;28;20200;-59
2023/04/10 05:48:44;;;;;;;12.67;7.70;;;2.00;92.20;;;;;;5026786;28;20715;-58
2023/04/10 05:51:09;;;;;;;12.47;7.43;;;2.00;92.30;;;;;;5019317;28;20219;-59
2023/04/10 05:53:35;;;;;;;13.00;7.53;;;2.00;91.80;;;;;;5027852;28;20176;-58
2023/04/10 05:56:01;;;;;;;12.93;7.90;;;2.00;93.30;;;;;;5028009;28;20580;-59
2023/04/10 05:58:27;;;;;;;15.10;7.27;;;2.10;94.40;;;;;;5025989;28;20172;-59
2023/04/10 06:00:55;;;;;;;12.30;7.63;;;2.20;94.30;;;;;;5027560;28;20644;-59
2023/04/10 06:03:21;;;;;;;12.90;8.23;;;2.20;94.10;;;;;;5023187;28;20813;-59
2023/04/10 06:05:46;;;;;;;12.40;7.90;;;2.30;93.60;;;;;;5024427;28;20500;-58
2023/04/10 06:08:12;;;;;;;13.17;7.70;;;2.30;92.20;;;;;;5025085;28;20975;-58
2023/04/10 06:10:37;;;;;;;14.13;8.63;;;2.40;91.70;;;;;;5027125;28;20186;-59
2023/04/10 06:13:03;;;;;;;16.17;8.73;;;2.40;90.80;;;;;;5012106;28;20636;-59
2023/04/10 06:15:29;;;;;;;13.63;8.70;;;2.40;90.50;;;;;;5021886;28;20199;-58
2023/04/10 06:17:55;;;;;;;14.87;8.40;;;2.40;89.80;;;;;;5030075;28;20172;-59
2023/04/10 06:20:20;;;;;;;16.90;8.47;;;2.50;90.00;;;;;;5025867;28;20168;-58
2023/04/10 06:22:46;;;;;;;17.50;9.80;;;2.50;91.80;;;;;;5022559;28;20201;-58
2023/04/10 06:25:12;;;;;;;20.50;10.23;;;2.50;93.30;;;;;;5018559;28;20176;-58
2023/04/10 06:27:38;;;;;;;11.20;7.90;;;2.50;94.30;;;;;;5029035;28;20183;-58
2023/04/10 06:30:04;;;;;;;14.50;8.73;;;2.60;94.10;;;;;;5028985;28;20416;-57
2023/04/10 06:32:30;;;;;;;15.40;9.17;;;2.60;93.70;;;;;;5026122;28;20198;-58
2023/04/10 06:34:56;;;;;;;17.40;8.90;;;2.60;93.60;;;;;;5016243;28;20475;-58
2023/04/10 06:37:31;;;;;;;21.27;8.93;;;2.70;93.40;;;;;;5024183;28;20418;-58
2023/04/10 06:40:08;;;;;;;15.80;9.90;;;2.70;91.80;;;;;;5028050;28;20175;-59
2023/04/10 06:42:35;;;;;;;13.83;9.00;;;2.70;92.00;;;;;;5025550;28;20467;-58
2023/04/10 06:45:01;;;;;;;15.70;8.90;;;2.80;92.00;;;;;;5024623;28;20937;-57
2023/04/10 06:47:27;;;;;;;12.13;7.40;;;2.90;91.40;;;;;;5028151;28;20433;-58
2023/04/10 06:49:52;;;;;;;10.67;7.03;;;2.90;91.20;;;;;;5025412;28;20444;-57
2023/04/10 06:52:19;;;;;;;13.20;7.47;;;3.00;90.10;;;;;;5028458;28;20940;-58
2023/04/10 06:54:45;;;;;;;13.97;7.80;;;3.00;87.50;;;;;;5027738;28;20233;-58
2023/04/10 06:57:10;;;;;;;12.90;7.57;;;3.10;86.20;;;;;;5028082;28;20433;-58
2023/04/10 06:59:36;;;;;;;9.33;6.70;;;3.20;86.10;;;;;;5026671;28;20164;-59
2023/04/10 07:02:05;;;;;;;12.07;7.23;;;3.20;86.30;;;;;;5026530;28;20195;-59
2023/04/10 07:04:31;;;;;;;16.30;7.67;;;3.30;87.10;;;;;;5021235;28;20248;-57
2023/04/10 07:06:57;;;;;;;11.50;7.50;;;3.40;86.50;;;;;;5030314;28;21002;-59
2023/04/10 07:09:25;;;;;;;11.60;7.83;;;3.50;86.20;;;;;;5023292;28;20510;-59
2023/04/10 07:11:51;;;;;;;12.70;7.60;;;3.60;86.30;;;;;;5026161;28;20681;-59
2023/04/10 07:14:17;;;;;;;11.10;7.30;;;3.70;84.70;;;;;;5015583;28;20434;-58
2023/04/10 07:16:42;;;;;;;11.83;7.40;;;3.80;82.20;;;;;;5019426;28;20738;-58
2023/04/10 07:19:08;;;;;;;10.93;7.43;;;4.00;79.80;;;;;;4997966;28;20525;-59
2023/04/10 07:21:34;;;;;;;11.73;7.73;;;4.10;77.90;;;;;;5020293;28;20199;-59
2023/04/10 07:24:00;;;;;;;11.40;6.90;;;4.30;78.40;;;;;;5019794;28;20554;-58
2023/04/10 07:26:25;;;;;;;10.83;6.93;;;4.40;77.40;;;;;;5011121;28;20653;-59
2023/04/10 07:28:51;;;;;;;11.40;7.27;;;4.60;76.30;;;;;;5015005;28;20431;-59
2023/04/10 07:31:17;;;;;;;12.63;7.50;;;4.80;75.60;;;;;;5012043;28;20204;-59
2023/04/10 07:33:45;;;;;;;11.17;6.67;;;4.90;74.60;;;;;;5010471;28;20190;-60
2023/04/10 07:36:11;;;;;;;12.00;7.40;;;5.10;73.30;;;;;;5015863;28;20215;-60
2023/04/10 07:38:37;;;;;;;13.97;7.67;;;5.20;73.70;;;;;;5007201;28;20423;-60
2023/04/10 07:41:04;;;;;;;11.57;7.27;;;5.40;72.80;;;;;;5018081;28;20438;-59
2023/04/10 07:43:30;;;;;;;11.47;7.67;;;5.60;71.20;;;;;;5019360;28;20180;-59
2023/04/10 07:45:56;;;;;;;13.97;7.87;;;5.80;70.10;;;;;;5020577;28;20446;-59
2023/04/10 07:48:22;;;;;;;11.77;7.23;;;5.90;69.30;;;;;;5014981;28;20445;-58
2023/04/10 07:50:48;;;;;;;11.90;7.80;;;6.10;68.90;;;;;;5018833;28;20446;-59
2023/04/10 07:53:13;;;;;;;8.73;6.30;;;6.20;68.60;;;;;;5020371;28;20946;-61
2023/04/10 07:55:44;;;;;;;12.20;7.70;;;6.40;68.40;;;;;;5016037;28;20210;-61
2023/04/10 07:58:10;;;;;;;11.53;7.93;;;6.50;68.00;;;;;;5011645;28;20654;-61
2023/04/10 08:00:36;;;;;;;11.90;8.10;;;6.60;68.10;;;;;;5019081;28;20438;-59
2023/04/10 08:03:03;;;;;;;11.20;7.10;;;6.80;67.10;;;;;;5023181;28;20188;-60
2023/04/10 08:05:29;;;;;;;11.47;7.70;;;6.90;66.50;;;;;;5022282;28;20426;-60
2023/04/10 08:07:54;;;;;;;9.33;6.30;;;7.00;66.60;;;;;;5018259;28;20812;-62
2023/04/10 08:10:20;;;;;;;9.27;6.13;;;7.10;66.70;;;;;;5017562;28;20180;-59
2023/04/10 08:12:45;;;;;;;9.47;6.07;;;7.30;66.40;;;;;;5015191;28;21335;-59
2023/04/10 08:15:11;;;;;;;12.40;6.80;;;7.40;65.60;;;;;;5016856;28;20204;-60
2023/04/10 08:17:36;;;;;;;9.80;6.50;;;7.60;65.40;;;;;;5020649;28;20184;-59
2023/04/10 08:20:03;;;;;;;9.00;5.80;;;7.70;65.50;;;;;;5026163;28;20671;-59
2023/04/10 08:22:29;;;;;;;8.70;6.70;;;7.80;64.50;;;;;;5027042;28;20931;-60
2023/04/10 08:24:55;;;;;;;7.63;5.50;;;8.00;64.50;;;;;;5023584;28;20438;-59
2023/04/10 08:27:21;;;;;;;12.10;6.60;;;8.10;64.30;;;;;;5023304;28;20431;-60
2023/04/10 08:29:46;;;;;;;8.57;6.10;;;8.20;63.80;;;;;;5019475;28;20183;-60
2023/04/10 08:32:12;;;;;;;8.70;6.60;;;8.30;62.70;;;;;;5018462;28;20695;-59
2023/04/10 08:34:38;;;;;;;10.10;6.37;;;8.50;62.80;;;;;;5010183;28;20182;-60
2023/04/10 08:37:08;;;;;;;9.67;6.17;;;8.60;62.60;;;;;;5027498;28;20208;-60
2023/04/10 08:39:37;;;;;;;7.93;5.93;;;8.70;62.30;;;;;;5025488;28;20171;-60
2023/04/10 08:42:05;;;;;;;9.70;6.47;;;8.90;61.70;;;;;;5022170;28;20481;-60
2023/04/10 08:44:30;;;;;;;8.70;5.53;;;8.90;60.20;;;;;;5022998;28;20958;-59
2023/04/10 08:47:00;;;;;;;7.33;5.60;;;9.00;59.50;;;;;;5026026;28;20422;-59
2023/04/10 08:49:38;;;;;;;7.90;5.80;;;9.10;59.20;;;;;;5007679;28;20175;-60
2023/04/10 08:52:07;;;;;;;8.60;5.53;;;9.20;59.70;;;;;;5025184;28;20531;-60
2023/04/10 08:54:34;;;;;;;6.50;5.13;;;9.40;59.70;;;;;;5031137;28;20426;-60
2023/04/10 08:57:00;;;;;;;11.30;5.90;;;9.50;58.60;;;;;;5028381;28;20541;-60
2023/04/10 08:59:30;;;;;;;7.00;4.87;;;9.60;58.10;;;;;;5028806;28;20910;-60
2023/04/10 09:01:56;;;;;;;6.07;4.87;;;9.70;57.60;;;;;;5007376;28;20273;-59
2023/04/10 09:04:23;;;;;;;7.00;5.40;;;9.70;56.80;;;;;;5030080;28;20422;-59
2023/04/10 09:06:48;;;;;;;5.67;4.73;;;9.90;57.10;;;;;;5031138;28;20426;-59
2023/04/10 09:09:14;;;;;;;6.07;4.83;;;10.00;56.60;;;;;;5028207;28;20457;-60
2023/04/10 09:11:54;;;;;;;5.90;4.70;;;10.20;56.90;;;;;;5010796;28;20210;-59
2023/04/10 09:14:24;;;;;;;5.93;5.10;;;10.40;56.40;;;;;;5028251;28;20176;-59
2023/04/10 09:16:51;;;;;;;4.40;3.50;;;10.70;55.70;;;;;;5019683;28;20545;-59
2023/04/10 09:19:30;;;;;;;4.30;3.90;;;10.90;55.00;;;;;;5030275;28;21179;-60
2023/04/10 09:21:56;;;;;;;3.53;3.20;;;11.10;53.70;;;;;;5030605;28;20480;-60
2023/04/10 09:24:23;;;;;;;4.50;3.10;;;11.30;53.10;;;;;;5028109;28;20959;-59
2023/04/10 09:26:48;;;;;;;3.37;3.07;;;11.50;50.60;;;;;;5018632;28;20183;-59
2023/04/10 09:29:15;;;;;;;3.70;3.33;;;11.70;47.80;;;;;;5030069;28;20429;-59
2023/04/10 09:31:42;;;;;;;3.40;2.70;;;11.90;46.60;;;;;;5022009;28;20198;-60
2023/04/10 09:34:11;;;;;;;3.87;3.07;;;12.00;46.20;;;;;;5026886;28;20798;-60
2023/04/10 09:36:37;;;;;;;2.93;2.73;;;12.10;45.90;;;;;;5026967;28;20967;-59
2023/04/10 09:39:04;;;;;;;4.13;3.20;;;12.20;45.30;;;;;;5015110;28;20422;-60
2023/04/10 09:41:30;;;;;;;3.50;3.13;;;12.30;45.50;;;;;;5026548;28;20476;-59
2023/04/10 09:44:06;;;;;;;3.30;3.00;;;12.40;44.90;;;;;;5020268;28;20438;-59
2023/04/10 09:46:31;;;;;;;3.80;3.23;;;12.50;44.80;;;;;;5024233;28;20445;-60
2023/04/10 09:48:59;;;;;;;5.03;3.83;;;12.60;44.50;;;;;;5027922;28;21233;-59
2023/04/10 09:51:30;;;;;;;3.40;3.10;;;12.70;45.00;;;;;;5026096;28;20682;-60
2023/04/10 09:53:55;;;;;;;3.43;3.13;;;12.80;45.40;;;;;;5026857;28;20426;-61
2023/04/10 09:56:25;;;;;;;3.23;2.93;;;12.90;45.30;;;;;;5020131;28;20442;-60
2023/04/10 09:58:52;;;;;;;4.17;3.50;;;13.10;45.40;;;;;;5027616;28;20172;-60
2023/04/10 10:01:19;;;;;;;5.80;3.80;;;13.20;44.70;;;;;;5027684;28;20450;-59
2023/04/10 10:03:45;;;;;;;4.00;3.17;;;13.40;44.00;;;;;;5005338;28;20430;-59
2023/04/10 10:06:11;;;;;;;3.47;2.80;;;13.40;43.70;;;;;;5016257;28;20465;-58
2023/04/10 10:08:36;;;;;;;3.70;3.27;;;13.50;41.60;;;;;;5029546;28;21083;-58
2023/04/10 10:11:08;;;;;;;3.90;3.03;;;13.60;40.50;;;;;;5029861;28;20526;-58
2023/04/10 10:13:47;;;;;;;4.20;3.40;;;13.60;41.00;;;;;;5026689;28;20176;-58
2023/04/10 10:16:29;;;;;;;2.93;2.73;;;13.70;39.80;;;;;;5024023;28;20465;-59
2023/04/10 10:19:23;;;;;;;3.33;2.67;;;13.70;39.30;;;;;;5028886;28;20427;-60
2023/04/10 10:21:50;;;;;;;4.00;3.40;;;13.80;37.10;;;;;;5025767;28;20446;-58
2023/04/10 10:24:19;;;;;;;4.03;3.10;;;13.90;37.90;;;;;;5021649;28;20430;-58
2023/04/10 10:26:46;;;;;;;3.23;2.93;;;13.90;38.10;;;;;;5027438;28;20427;-59
2023/04/10 10:29:16;;;;;;;5.23;3.30;;;13.90;38.40;;;;;;5028223;28;20517;-60
2023/04/10 10:31:42;;;;;;;2.73;2.53;;;14.00;38.90;;;;;;5025573;28;20612;-59
2023/04/10 10:34:08;;;;;;;3.30;3.00;;;14.10;39.20;;;;;;5028847;28;20430;-59
2023/04/10 10:36:39;;;;;;;2.90;2.60;;;14.10;38.80;;;;;;5028594;28;20595;-59
2023/04/10 10:39:16;;;;;;;3.50;2.77;;;14.30;39.30;;;;;;5007829;28;20445;-59
2023/04/10 10:42:13;;;;;;;2.73;2.50;;;14.40;38.80;;;;;;5018674;28;20462;-60
2023/04/10 10:44:46;;;;;;;2.47;2.27;;;14.50;37.10;;;;;;5014199;28;20836;-59
2023/04/10 10:47:16;;;;;;;2.13;1.77;;;14.50;37.20;;;;;;5021878;28;20510;-59
2023/04/10 10:50:02;;;;;;;2.13;2.00;;;14.60;35.60;;;;;;5021145;28;20540;-58
2023/04/10 10:52:51;;;;;;;2.10;1.93;;;14.60;34.90;;;;;;5019135;28;20455;-58
2023/04/10 10:55:26;;;;;;;3.53;2.07;;;14.60;35.70;;;;;;5015709;28;20477;-58
2023/04/10 10:58:00;;;;;;;2.17;1.70;;;14.60;35.10;;;;;;5020008;28;20426;-59
2023/04/10 11:00:45;;;;;;;2.47;2.10;;;14.60;34.80;;;;;;5017283;28;20950;-59
2023/04/10 11:03:14;;;;;;;2.40;2.20;;;14.60;35.80;;;;;;5019027;28;20442;-60
2023/04/10 11:05:53;;;;;;;2.17;1.97;;;14.70;36.20;;;;;;5022660;28;20450;-58
2023/04/10 11:08:36;;;;;;;2.93;2.40;;;14.90;35.20;;;;;;5021589;28;20426;-59
2023/04/10 11:11:17;;;;;;;1.87;1.77;;;15.10;35.70;;;;;;5015774;28;20426;-58
2023/04/10 11:13:49;;;;;;;1.90;1.80;;;15.20;35.40;;;;;;5018912;28;20847;-58
2023/04/10 11:16:15;;;;;;;1.80;1.70;;;15.40;35.00;;;;;;5016862;28;20463;-59
2023/04/10 11:18:43;;;;;;;3.60;2.10;;;15.60;35.10;;;;;;5013173;28;20434;-59
2023/04/10 11:21:17;;;;;;;2.33;2.13;;;15.70;33.10;;;;;;5000299;28;20203;-59
2023/04/10 11:23:49;;;;;;;2.77;2.50;;;15.90;33.90;;;;;;5017455;28;20430;-58
2023/04/10 11:26:38;;;;;;;;;;;;;;;;;;;;;
2023/04/10 11:29:04;;;;;;;2.47;2.27;;;16.10;33.10;;;;;;5014440;28;20446;-58
2023/04/10 11:31:31;;;;;;;2.23;2.07;;;16.30;33.20;;;;;;5003364;28;21199;-59
2023/04/10 11:34:01;;;;;;;1.93;1.73;;;16.50;34.60;;;;;;5020445;28;20453;-59
2023/04/10 11:36:27;;;;;;;1.80;1.70;;;16.60;33.20;;;;;;5016303;28;20462;-59
2023/04/10 11:38:57;;;;;;;3.07;2.00;;;16.70;29.90;;;;;;5021156;28;20453;-58
2023/04/10 11:41:37;;;;;;;1.43;1.33;;;16.60;29.60;;;;;;5020015;28;20442;-59
2023/04/10 11:44:09;;;;;;;1.40;1.30;;;16.60;29.10;;;;;;5019665;28;20437;-58
2023/04/10 11:46:39;;;;;;;1.53;1.40;;;16.70;28.90;;;;;;5020252;28;20427;-59
2023/04/10 11:49:08;;;;;;;1.37;1.20;;;16.60;27.70;;;;;;5014076;28;20467;-58
2023/04/10 11:51:34;;;;;;;2.37;1.10;;;16.60;27.10;;;;;;5013829;28;20509;-59
2023/04/10 11:54:10;;;;;;;1.63;1.53;;;16.60;27.90;;;;;;5022377;28;20500;-61
2023/04/10 11:56:37;;;;;;;3.90;1.27;;;16.70;27.50;;;;;;5002513;28;20489;-58
2023/04/10 11:59:08;;;;;;;1.63;1.53;;;16.80;26.80;;;;;;5019243;28;20429;-60
2023/04/10 12:01:34;;;;;;;3.00;1.27;;;16.80;27.30;;;;;;5017419;28;20441;-59
2023/04/10 12:04:00;;;;;;;1.50;1.40;;;16.90;27.40;;;;;;5023282;28;20946;-58
2023/04/10 12:06:27;;;;;;;2.60;1.60;;;16.90;28.30;;;;;;5020328;28;20176;-58
2023/04/10 12:08:52;;;;;;;6.30;1.67;;;17.00;29.00;;;;;;5003539;28;20445;-58
2023/04/10 12:11:21;;;;;;;2.10;1.90;;;17.20;29.50;;;;;;5020217;28;20450;-58
2023/04/10 12:13:47;;;;;;;1.50;1.40;;;17.20;28.00;;;;;;5019171;28;20184;-57
2023/04/10 12:16:13;;;;;;;2.40;1.80;;;17.20;28.30;;;;;;5018144;28;20466;-58
2023/04/10 12:18:39;;;;;;;1.23;1.10;;;17.40;28.40;;;;;;5020413;28;20426;-58
2023/04/10 12:21:06;;;;;;;1.70;1.60;;;17.50;28.40;;;;;;5019359;28;20568;-59
2023/04/10 12:23:32;;;;;;;2.07;1.87;;;17.70;29.10;;;;;;5015387;28;20210;-58
2023/04/10 12:26:16;;;;;;;2.27;2.00;;;17.90;28.70;;;;;;5015342;28;21118;-59
2023/04/10 12:28:52;;;;;;;2.30;2.10;;;18.20;29.80;;;;;;5016184;28;20430;-57
2023/04/10 12:31:29;;;;;;;2.60;2.40;;;18.30;31.20;;;;;;5019861;28;20453;-59
2023/04/10 12:33:56;;;;;;;2.50;2.07;;;18.30;29.20;;;;;;5014805;28;20422;-58
2023/04/10 12:36:29;;;;;;;2.30;2.10;;;18.20;29.40;;;;;;5018680;28;20455;-58
2023/04/10 12:38:56;;;;;;;2.17;1.97;;;18.20;28.50;;;;;;5016705;28;21000;-58
2023/04/10 12:41:24;;;;;;;3.30;2.83;;;18.10;29.00;;;;;;5014801;28;20451;-58
2023/04/10 12:43:51;;;;;;;2.30;2.10;;;18.00;29.30;;;;;;5018957;28;20427;-58
2023/04/10 12:46:28;;;;;;;2.30;2.07;;;17.90;30.40;;;;;;5022625;28;20452;-60
2023/04/10 12:48:55;;;;;;;2.90;2.57;;;17.90;30.80;;;;;;5020010;28;20426;-59
2023/04/10 12:51:43;;;;;;;3.97;2.63;;;17.90;29.80;;;;;;5020236;28;20529;-57
2023/04/10 12:54:09;;;;;;;2.10;2.00;;;17.70;29.10;;;;;;5019274;28;20452;-59